sensor_id;sensor_type;location;lat;lon;timestamp;temperature;humidity
54846;DHT22;53889;50.084;8.646;2023-06-22T00:02:00;24.50;94.30
54846;DHT22;53889;50.084;8.646;2023-06-22T00:04:28;24.40;94.50
54846;DHT22;53889;50.084;8.646;2023-06-22T00:06:55;24.50;94.50
54846;DHT22;53889;50.084;8.646;2023-06-22T00:09:22;24.60;94.40
54846;DHT22;53889;50.084;8.646;2023-06-22T00:11:48;24.70;94.30
54846;DHT22;53889;50.084;8.646;2023-06-22T00:14:15;24.80;94.30
54846;DHT22;53889;50.084;8.646;2023-06-22T00:16:41;24.80;94.30
54846;DHT22;53889;50.084;8.646;2023-06-22T00:19:09;24.80;94.40
54846;DHT22;53889;50.084;8.646;2023-06-22T00:21:38;24.80;94.50
54846;DHT22;53889;50.084;8.646;2023-06-22T00:24:05;24.80;94.20
54846;DHT22;53889;50.084;8.646;2023-06-22T00:26:32;24.70;94.10
54846;DHT22;53889;50.084;8.646;2023-06-22T00:28:59;24.60;94.40
54846;DHT22;53889;50.084;8.646;2023-06-22T00:31:26;24.50;94.20
54846;DHT22;53889;50.084;8.646;2023-06-22T00:33:53;24.40;94.40
54846;DHT22;53889;50.084;8.646;2023-06-22T00:36:20;24.50;94.30
54846;DHT22;53889;50.084;8.646;2023-06-22T00:38:48;24.50;94.30
54846;DHT22;53889;50.084;8.646;2023-06-22T00:41:16;24.30;94.40
54846;DHT22;53889;50.084;8.646;2023-06-22T00:43:43;24.10;94.70
54846;DHT22;53889;50.084;8.646;2023-06-22T00:46:09;23.90;94.80
54846;DHT22;53889;50.084;8.646;2023-06-22T00:48:36;23.90;94.90
54846;DHT22;53889;50.084;8.646;2023-06-22T00:51:03;24.10;94.80
54846;DHT22;53889;50.084;8.646;2023-06-22T00:53:30;24.10;94.30
54846;DHT22;53889;50.084;8.646;2023-06-22T00:56:02;24.20;94.30
54846;DHT22;53889;50.084;8.646;2023-06-22T00:58:29;24.20;94.00
54846;DHT22;53889;50.084;8.646;2023-06-22T01:00:56;24.20;94.10
54846;DHT22;53889;50.084;8.646;2023-06-22T01:03:26;24.20;94.00
54846;DHT22;53889;50.084;8.646;2023-06-22T01:05:56;24.30;94.00
54846;DHT22;53889;50.084;8.646;2023-06-22T01:08:31;24.40;93.80
54846;DHT22;53889;50.084;8.646;2023-06-22T01:11:05;24.50;94.00
54846;DHT22;53889;50.084;8.646;2023-06-22T01:13:37;24.50;95.20
54846;DHT22;53889;50.084;8.646;2023-06-22T01:16:08;24.30;96.50
54846;DHT22;53889;50.084;8.646;2023-06-22T01:18:41;23.90;98.60
54846;DHT22;53889;50.084;8.646;2023-06-22T01:21:12;23.70;99.50
54846;DHT22;53889;50.084;8.646;2023-06-22T01:23:51;23.30;99.90
54846;DHT22;53889;50.084;8.646;2023-06-22T01:26:28;23.10;99.90
54846;DHT22;53889;50.084;8.646;2023-06-22T01:28:57;23.00;99.90
54846;DHT22;53889;50.084;8.646;2023-06-22T01:31:28;22.70;99.90
54846;DHT22;53889;50.084;8.646;2023-06-22T01:33:59;22.30;99.90
54846;DHT22;53889;50.084;8.646;2023-06-22T01:36:27;21.90;99.90
54846;DHT22;53889;50.084;8.646;2023-06-22T01:38:56;21.40;99.90
54846;DHT22;53889;50.084;8.646;2023-06-22T01:41:25;21.80;99.90
54846;DHT22;53889;50.084;8.646;2023-06-22T01:43:53;21.80;99.90
54846;DHT22;53889;50.084;8.646;2023-06-22T01:46:23;21.90;99.90
54846;DHT22;53889;50.084;8.646;2023-06-22T01:48:50;21.90;99.90
54846;DHT22;53889;50.084;8.646;2023-06-22T01:51:17;22.00;99.90
54846;DHT22;53889;50.084;8.646;2023-06-22T01:53:44;22.00;99.90
54846;DHT22;53889;50.084;8.646;2023-06-22T01:56:11;22.10;99.90
54846;DHT22;53889;50.084;8.646;2023-06-22T01:58:44;22.30;99.90
54846;DHT22;53889;50.084;8.646;2023-06-22T02:01:14;22.40;99.90
54846;DHT22;53889;50.084;8.646;2023-06-22T02:03:51;22.40;99.90
54846;DHT22;53889;50.084;8.646;2023-06-22T02:06:23;22.50;99.90
54846;DHT22;53889;50.084;8.646;2023-06-22T02:08:55;22.50;99.90
54846;DHT22;53889;50.084;8.646;2023-06-22T02:11:24;22.60;99.90
54846;DHT22;53889;50.084;8.646;2023-06-22T02:13:53;22.60;99.90
54846;DHT22;53889;50.084;8.646;2023-06-22T02:16:20;22.60;99.90
54846;DHT22;53889;50.084;8.646;2023-06-22T02:18:49;22.60;99.90
54846;DHT22;53889;50.084;8.646;2023-06-22T02:21:17;22.50;99.90
54846;DHT22;53889;50.084;8.646;2023-06-22T02:23:44;22.60;99.90
54846;DHT22;53889;50.084;8.646;2023-06-22T02:26:10;22.50;99.90
54846;DHT22;53889;50.084;8.646;2023-06-22T02:28:37;22.60;99.90
54846;DHT22;53889;50.084;8.646;2023-06-22T02:31:04;22.60;99.90
54846;DHT22;53889;50.084;8.646;2023-06-22T02:33:31;22.60;99.90
54846;DHT22;53889;50.084;8.646;2023-06-22T02:35:59;22.60;99.90
54846;DHT22;53889;50.084;8.646;2023-06-22T02:38:25;22.60;99.90
54846;DHT22;53889;50.084;8.646;2023-06-22T02:40:52;22.60;99.90
54846;DHT22;53889;50.084;8.646;2023-06-22T02:43:19;22.60;99.90
54846;DHT22;53889;50.084;8.646;2023-06-22T02:45:45;22.70;99.90
54846;DHT22;53889;50.084;8.646;2023-06-22T02:48:12;22.80;99.90
54846;DHT22;53889;50.084;8.646;2023-06-22T02:50:39;22.70;99.90
54846;DHT22;53889;50.084;8.646;2023-06-22T02:53:07;22.70;99.90
54846;DHT22;53889;50.084;8.646;2023-06-22T02:55:37;22.70;99.90
54846;DHT22;53889;50.084;8.646;2023-06-22T02:58:05;22.70;99.90
54846;DHT22;53889;50.084;8.646;2023-06-22T03:00:34;22.70;99.90
54846;DHT22;53889;50.084;8.646;2023-06-22T03:03:01;22.70;99.90
54846;DHT22;53889;50.084;8.646;2023-06-22T03:05:28;22.60;99.90
54846;DHT22;53889;50.084;8.646;2023-06-22T03:07:56;22.60;99.90
54846;DHT22;53889;50.084;8.646;2023-06-22T03:10:25;22.60;99.90
54846;DHT22;53889;50.084;8.646;2023-06-22T03:12:51;22.60;99.90
54846;DHT22;53889;50.084;8.646;2023-06-22T03:15:18;22.60;99.90
54846;DHT22;53889;50.084;8.646;2023-06-22T03:17:44;22.60;99.90
54846;DHT22;53889;50.084;8.646;2023-06-22T03:20:11;22.60;99.90
54846;DHT22;53889;50.084;8.646;2023-06-22T03:22:39;22.60;99.90
54846;DHT22;53889;50.084;8.646;2023-06-22T03:25:07;22.60;99.90
54846;DHT22;53889;50.084;8.646;2023-06-22T03:27:40;22.60;99.90
54846;DHT22;53889;50.084;8.646;2023-06-22T03:30:09;22.50;99.90
54846;DHT22;53889;50.084;8.646;2023-06-22T03:32:36;22.60;99.90
54846;DHT22;53889;50.084;8.646;2023-06-22T03:35:05;22.50;99.90
54846;DHT22;53889;50.084;8.646;2023-06-22T03:37:34;22.40;99.90
54846;DHT22;53889;50.084;8.646;2023-06-22T03:40:01;22.30;99.90
54846;DHT22;53889;50.084;8.646;2023-06-22T03:42:30;22.40;99.90
54846;DHT22;53889;50.084;8.646;2023-06-22T03:44:58;22.30;99.90
54846;DHT22;53889;50.084;8.646;2023-06-22T03:47:26;22.30;99.90
54846;DHT22;53889;50.084;8.646;2023-06-22T03:49:53;22.30;99.90
54846;DHT22;53889;50.084;8.646;2023-06-22T03:52:20;22.30;99.90
54846;DHT22;53889;50.084;8.646;2023-06-22T03:54:47;22.30;99.90
54846;DHT22;53889;50.084;8.646;2023-06-22T03:57:13;22.30;99.90
54846;DHT22;53889;50.084;8.646;2023-06-22T03:59:40;22.30;99.90
54846;DHT22;53889;50.084;8.646;2023-06-22T04:02:08;22.40;99.90
54846;DHT22;53889;50.084;8.646;2023-06-22T04:04:35;22.40;99.90
54846;DHT22;53889;50.084;8.646;2023-06-22T04:07:01;22.40;99.90
54846;DHT22;53889;50.084;8.646;2023-06-22T04:09:28;22.30;99.90
54846;DHT22;53889;50.084;8.646;2023-06-22T04:11:55;22.40;99.90
54846;DHT22;53889;50.084;8.646;2023-06-22T04:14:21;22.40;99.90
54846;DHT22;53889;50.084;8.646;2023-06-22T04:16:48;22.40;99.90
54846;DHT22;53889;50.084;8.646;2023-06-22T04:19:16;22.40;99.90
54846;DHT22;53889;50.084;8.646;2023-06-22T04:21:43;22.40;99.90
54846;DHT22;53889;50.084;8.646;2023-06-22T04:24:10;22.40;99.90
54846;DHT22;53889;50.084;8.646;2023-06-22T04:26:37;22.40;99.90
54846;DHT22;53889;50.084;8.646;2023-06-22T04:29:07;22.40;99.90
54846;DHT22;53889;50.084;8.646;2023-06-22T04:31:34;22.50;99.90
54846;DHT22;53889;50.084;8.646;2023-06-22T04:34:02;22.20;99.90
54846;DHT22;53889;50.084;8.646;2023-06-22T04:36:34;22.50;99.90
54846;DHT22;53889;50.084;8.646;2023-06-22T04:39:04;22.50;99.90
54846;DHT22;53889;50.084;8.646;2023-06-22T04:41:31;22.50;99.90
54846;DHT22;53889;50.084;8.646;2023-06-22T04:44:08;22.40;99.90
54846;DHT22;53889;50.084;8.646;2023-06-22T04:46:35;22.50;99.90
54846;DHT22;53889;50.084;8.646;2023-06-22T04:49:04;22.30;99.90
54846;DHT22;53889;50.084;8.646;2023-06-22T04:51:39;22.40;99.90
54846;DHT22;53889;50.084;8.646;2023-06-22T04:54:06;22.60;99.90
54846;DHT22;53889;50.084;8.646;2023-06-22T04:56:33;22.60;99.90
54846;DHT22;53889;50.084;8.646;2023-06-22T04:59:00;22.70;99.90
54846;DHT22;53889;50.084;8.646;2023-06-22T05:01:28;22.60;99.90
54846;DHT22;53889;50.084;8.646;2023-06-22T05:03:57;22.60;99.90
54846;DHT22;53889;50.084;8.646;2023-06-22T05:06:26;22.60;99.90
54846;DHT22;53889;50.084;8.646;2023-06-22T05:08:55;22.70;99.90
54846;DHT22;53889;50.084;8.646;2023-06-22T05:11:23;22.70;99.90
54846;DHT22;53889;50.084;8.646;2023-06-22T05:13:50;22.80;99.90
54846;DHT22;53889;50.084;8.646;2023-06-22T05:16:16;22.90;99.90
54846;DHT22;53889;50.084;8.646;2023-06-22T05:18:43;22.90;99.90
54846;DHT22;53889;50.084;8.646;2023-06-22T05:21:09;23.00;99.90
54846;DHT22;53889;50.084;8.646;2023-06-22T05:23:36;23.00;99.90
54846;DHT22;53889;50.084;8.646;2023-06-22T05:26:04;23.00;99.90
54846;DHT22;53889;50.084;8.646;2023-06-22T05:28:31;23.00;99.90
54846;DHT22;53889;50.084;8.646;2023-06-22T05:30:59;23.10;99.90
54846;DHT22;53889;50.084;8.646;2023-06-22T05:33:26;23.20;99.90
54846;DHT22;53889;50.084;8.646;2023-06-22T05:35:52;23.00;99.90
54846;DHT22;53889;50.084;8.646;2023-06-22T05:38:19;23.10;99.90
54846;DHT22;53889;50.084;8.646;2023-06-22T05:40:46;23.40;99.90
54846;DHT22;53889;50.084;8.646;2023-06-22T05:43:14;24.00;99.90
54846;DHT22;53889;50.084;8.646;2023-06-22T05:45:40;24.60;99.90
54846;DHT22;53889;50.084;8.646;2023-06-22T05:48:07;25.30;99.90
54846;DHT22;53889;50.084;8.646;2023-06-22T05:50:34;25.90;99.90
54846;DHT22;53889;50.084;8.646;2023-06-22T05:53:00;26.30;99.90
54846;DHT22;53889;50.084;8.646;2023-06-22T05:55:27;26.60;99.90
54846;DHT22;53889;50.084;8.646;2023-06-22T05:57:54;27.00;99.90
54846;DHT22;53889;50.084;8.646;2023-06-22T06:00:22;27.30;99.20
54846;DHT22;53889;50.084;8.646;2023-06-22T06:02:49;27.40;99.30
54846;DHT22;53889;50.084;8.646;2023-06-22T06:05:16;27.60;98.60
54846;DHT22;53889;50.084;8.646;2023-06-22T06:07:45;27.80;98.60
54846;DHT22;53889;50.084;8.646;2023-06-22T06:10:11;28.20;98.20
54846;DHT22;53889;50.084;8.646;2023-06-22T06:12:38;28.20;97.40
54846;DHT22;53889;50.084;8.646;2023-06-22T06:15:05;27.90;97.60
54846;DHT22;53889;50.084;8.646;2023-06-22T06:17:34;27.80;97.50
54846;DHT22;53889;50.084;8.646;2023-06-22T06:20:00;27.90;97.40
54846;DHT22;53889;50.084;8.646;2023-06-22T06:22:29;28.10;97.30
54846;DHT22;53889;50.084;8.646;2023-06-22T06:24:56;28.20;97.00
54846;DHT22;53889;50.084;8.646;2023-06-22T06:27:23;28.40;97.00
54846;DHT22;53889;50.084;8.646;2023-06-22T06:29:54;28.60;96.40
54846;DHT22;53889;50.084;8.646;2023-06-22T06:32:21;28.70;96.00
54846;DHT22;53889;50.084;8.646;2023-06-22T06:34:49;28.10;96.10
54846;DHT22;53889;50.084;8.646;2023-06-22T06:37:16;28.60;96.00
54846;DHT22;53889;50.084;8.646;2023-06-22T06:39:43;28.50;96.10
54846;DHT22;53889;50.084;8.646;2023-06-22T06:42:10;28.50;96.00
54846;DHT22;53889;50.084;8.646;2023-06-22T06:44:37;29.00;95.60
54846;DHT22;53889;50.084;8.646;2023-06-22T06:47:04;29.30;95.40
54846;DHT22;53889;50.084;8.646;2023-06-22T06:49:30;29.80;94.90
54846;DHT22;53889;50.084;8.646;2023-06-22T06:51:58;30.10;94.10
54846;DHT22;53889;50.084;8.646;2023-06-22T06:54:25;30.50;93.50
54846;DHT22;53889;50.084;8.646;2023-06-22T06:56:53;30.30;94.00
54846;DHT22;53889;50.084;8.646;2023-06-22T06:59:19;30.10;93.70
54846;DHT22;53889;50.084;8.646;2023-06-22T07:01:46;30.00;93.80
54846;DHT22;53889;50.084;8.646;2023-06-22T07:04:14;29.70;93.80
54846;DHT22;53889;50.084;8.646;2023-06-22T07:06:40;29.70;94.00
54846;DHT22;53889;50.084;8.646;2023-06-22T07:09:09;29.00;94.30
54846;DHT22;53889;50.084;8.646;2023-06-22T07:11:36;29.10;94.00
54846;DHT22;53889;50.084;8.646;2023-06-22T07:14:02;29.10;94.20
54846;DHT22;53889;50.084;8.646;2023-06-22T07:16:29;28.90;94.60
54846;DHT22;53889;50.084;8.646;2023-06-22T07:18:57;29.30;94.30
54846;DHT22;53889;50.084;8.646;2023-06-22T07:21:23;29.40;94.10
54846;DHT22;53889;50.084;8.646;2023-06-22T07:23:50;29.30;94.20
54846;DHT22;53889;50.084;8.646;2023-06-22T07:26:18;29.00;94.40
54846;DHT22;53889;50.084;8.646;2023-06-22T07:28:44;28.70;94.70
54846;DHT22;53889;50.084;8.646;2023-06-22T07:31:11;28.80;94.80
54846;DHT22;53889;50.084;8.646;2023-06-22T07:33:38;28.60;95.10
54846;DHT22;53889;50.084;8.646;2023-06-22T07:36:05;28.70;95.20
54846;DHT22;53889;50.084;8.646;2023-06-22T07:38:33;28.90;94.90
54846;DHT22;53889;50.084;8.646;2023-06-22T07:41:01;29.70;94.00
54846;DHT22;53889;50.084;8.646;2023-06-22T07:43:29;29.30;93.90
54846;DHT22;53889;50.084;8.646;2023-06-22T07:45:55;30.00;93.80
54846;DHT22;53889;50.084;8.646;2023-06-22T07:48:23;30.90;92.70
54846;DHT22;53889;50.084;8.646;2023-06-22T07:50:49;31.60;91.90
54846;DHT22;53889;50.084;8.646;2023-06-22T07:53:16;32.10;90.80
54846;DHT22;53889;50.084;8.646;2023-06-22T07:55:43;32.90;89.60
54846;DHT22;53889;50.084;8.646;2023-06-22T07:58:10;32.60;89.00
54846;DHT22;53889;50.084;8.646;2023-06-22T08:00:38;32.60;89.40
54846;DHT22;53889;50.084;8.646;2023-06-22T08:03:05;33.20;88.40
54846;DHT22;53889;50.084;8.646;2023-06-22T08:05:32;31.60;90.10
54846;DHT22;53889;50.084;8.646;2023-06-22T08:07:59;32.10;90.40
54846;DHT22;53889;50.084;8.646;2023-06-22T08:10:26;31.80;89.60
54846;DHT22;53889;50.084;8.646;2023-06-22T08:12:52;31.70;90.20
54846;DHT22;53889;50.084;8.646;2023-06-22T08:15:19;32.30;89.40
54846;DHT22;53889;50.084;8.646;2023-06-22T08:17:48;32.90;88.20
54846;DHT22;53889;50.084;8.646;2023-06-22T08:20:15;32.80;88.10
54846;DHT22;53889;50.084;8.646;2023-06-22T08:22:43;32.60;87.90
54846;DHT22;53889;50.084;8.646;2023-06-22T08:25:10;32.30;88.90
54846;DHT22;53889;50.084;8.646;2023-06-22T08:27:37;32.30;89.30
54846;DHT22;53889;50.084;8.646;2023-06-22T08:30:05;32.60;89.00
54846;DHT22;53889;50.084;8.646;2023-06-22T08:32:31;32.80;87.70
54846;DHT22;53889;50.084;8.646;2023-06-22T08:35:00;32.70;87.10
54846;DHT22;53889;50.084;8.646;2023-06-22T08:37:28;32.80;88.20
54846;DHT22;53889;50.084;8.646;2023-06-22T08:39:56;32.70;86.90
54846;DHT22;53889;50.084;8.646;2023-06-22T08:42:23;33.00;85.80
54846;DHT22;53889;50.084;8.646;2023-06-22T08:44:51;32.70;86.20
54846;DHT22;53889;50.084;8.646;2023-06-22T08:47:19;32.70;86.90
54846;DHT22;53889;50.084;8.646;2023-06-22T08:49:47;33.30;85.90
54846;DHT22;53889;50.084;8.646;2023-06-22T08:52:18;33.70;84.30
54846;DHT22;53889;50.084;8.646;2023-06-22T08:54:45;33.40;84.40
54846;DHT22;53889;50.084;8.646;2023-06-22T08:57:12;33.50;84.30
54846;DHT22;53889;50.084;8.646;2023-06-22T08:59:38;33.20;85.50
54846;DHT22;53889;50.084;8.646;2023-06-22T09:02:05;33.60;84.80
54846;DHT22;53889;50.084;8.646;2023-06-22T09:04:32;33.50;83.90
54846;DHT22;53889;50.084;8.646;2023-06-22T09:07:00;33.80;84.00
54846;DHT22;53889;50.084;8.646;2023-06-22T09:09:28;34.20;83.10
54846;DHT22;53889;50.084;8.646;2023-06-22T09:11:55;34.10;82.20
54846;DHT22;53889;50.084;8.646;2023-06-22T09:14:22;33.30;83.00
54846;DHT22;53889;50.084;8.646;2023-06-22T09:16:48;33.10;83.00
54846;DHT22;53889;50.084;8.646;2023-06-22T09:19:15;32.60;84.90
54846;DHT22;53889;50.084;8.646;2023-06-22T09:21:42;32.40;85.50
54846;DHT22;53889;50.084;8.646;2023-06-22T09:24:08;32.40;86.30
54846;DHT22;53889;50.084;8.646;2023-06-22T09:26:36;33.10;84.60
54846;DHT22;53889;50.084;8.646;2023-06-22T09:29:04;33.00;84.10
54846;DHT22;53889;50.084;8.646;2023-06-22T09:31:31;33.30;82.00
54846;DHT22;53889;50.084;8.646;2023-06-22T09:33:58;33.10;83.00
54846;DHT22;53889;50.084;8.646;2023-06-22T09:36:24;33.20;83.30
54846;DHT22;53889;50.084;8.646;2023-06-22T09:38:51;33.70;82.60
54846;DHT22;53889;50.084;8.646;2023-06-22T09:41:21;34.30;79.60
54846;DHT22;53889;50.084;8.646;2023-06-22T09:43:49;33.80;79.40
54846;DHT22;53889;50.084;8.646;2023-06-22T09:46:17;33.50;79.40
54846;DHT22;53889;50.084;8.646;2023-06-22T09:48:44;31.70;83.30
54846;DHT22;53889;50.084;8.646;2023-06-22T09:51:11;31.50;83.90
54846;DHT22;53889;50.084;8.646;2023-06-22T09:53:38;32.00;83.90
54846;DHT22;53889;50.084;8.646;2023-06-22T09:56:05;32.40;82.90
54846;DHT22;53889;50.084;8.646;2023-06-22T09:58:32;32.90;82.60
54846;DHT22;53889;50.084;8.646;2023-06-22T10:01:00;33.80;81.20
54846;DHT22;53889;50.084;8.646;2023-06-22T10:03:27;34.10;79.20
54846;DHT22;53889;50.084;8.646;2023-06-22T10:05:53;34.90;76.80
54846;DHT22;53889;50.084;8.646;2023-06-22T10:08:20;35.10;75.00
54846;DHT22;53889;50.084;8.646;2023-06-22T10:10:47;33.90;75.40
54846;DHT22;53889;50.084;8.646;2023-06-22T10:13:14;33.80;75.90
54846;DHT22;53889;50.084;8.646;2023-06-22T10:15:41;33.60;76.90
54846;DHT22;53889;50.084;8.646;2023-06-22T10:18:09;34.30;76.40
54846;DHT22;53889;50.084;8.646;2023-06-22T10:20:36;34.40;74.80
54846;DHT22;53889;50.084;8.646;2023-06-22T10:23:03;34.20;75.50
54846;DHT22;53889;50.084;8.646;2023-06-22T10:25:29;33.90;76.30
54846;DHT22;53889;50.084;8.646;2023-06-22T10:27:56;33.90;76.40
54846;DHT22;53889;50.084;8.646;2023-06-22T10:30:23;33.70;76.70
54846;DHT22;53889;50.084;8.646;2023-06-22T10:32:50;33.80;77.00
54846;DHT22;53889;50.084;8.646;2023-06-22T10:35:18;33.40;77.60
54846;DHT22;53889;50.084;8.646;2023-06-22T10:37:46;34.20;76.70
54846;DHT22;53889;50.084;8.646;2023-06-22T10:40:13;34.30;75.50
54846;DHT22;53889;50.084;8.646;2023-06-22T10:42:40;34.50;74.70
54846;DHT22;53889;50.084;8.646;2023-06-22T10:45:08;34.30;74.80
54846;DHT22;53889;50.084;8.646;2023-06-22T10:47:35;34.20;74.10
54846;DHT22;53889;50.084;8.646;2023-06-22T10:50:02;34.70;74.60
54846;DHT22;53889;50.084;8.646;2023-06-22T10:52:30;35.30;73.30
54846;DHT22;53889;50.084;8.646;2023-06-22T10:54:57;35.60;71.30
54846;DHT22;53889;50.084;8.646;2023-06-22T10:57:24;35.50;71.90
54846;DHT22;53889;50.084;8.646;2023-06-22T10:59:51;34.60;72.70
54846;DHT22;53889;50.084;8.646;2023-06-22T11:02:18;34.80;73.10
54846;DHT22;53889;50.084;8.646;2023-06-22T11:04:44;35.30;72.20
54846;DHT22;53889;50.084;8.646;2023-06-22T11:07:11;35.10;71.70
54846;DHT22;53889;50.084;8.646;2023-06-22T11:09:39;35.70;71.50
54846;DHT22;53889;50.084;8.646;2023-06-22T11:12:07;35.50;70.80
54846;DHT22;53889;50.084;8.646;2023-06-22T11:14:33;35.70;70.70
54846;DHT22;53889;50.084;8.646;2023-06-22T11:17:00;35.30;70.60
54846;DHT22;53889;50.084;8.646;2023-06-22T11:19:27;34.50;71.90
54846;DHT22;53889;50.084;8.646;2023-06-22T11:21:53;34.40;72.10
54846;DHT22;53889;50.084;8.646;2023-06-22T11:24:20;34.20;72.90
54846;DHT22;53889;50.084;8.646;2023-06-22T11:26:48;33.40;74.20
54846;DHT22;53889;50.084;8.646;2023-06-22T11:29:15;32.90;75.70
54846;DHT22;53889;50.084;8.646;2023-06-22T11:31:42;33.50;74.60
54846;DHT22;53889;50.084;8.646;2023-06-22T11:34:09;34.40;73.40
54846;DHT22;53889;50.084;8.646;2023-06-22T11:36:36;34.70;73.20
54846;DHT22;53889;50.084;8.646;2023-06-22T11:39:03;34.30;72.80
54846;DHT22;53889;50.084;8.646;2023-06-22T11:41:30;34.20;73.40
54846;DHT22;53889;50.084;8.646;2023-06-22T11:43:58;34.90;72.60
54846;DHT22;53889;50.084;8.646;2023-06-22T11:46:25;35.40;71.80
54846;DHT22;53889;50.084;8.646;2023-06-22T11:48:52;35.30;71.50
54846;DHT22;53889;50.084;8.646;2023-06-22T11:51:18;34.50;72.50
54846;DHT22;53889;50.084;8.646;2023-06-22T11:53:45;34.10;72.70
54846;DHT22;53889;50.084;8.646;2023-06-22T11:56:12;34.00;73.70
54846;DHT22;53889;50.084;8.646;2023-06-22T11:58:39;34.50;73.20
54846;DHT22;53889;50.084;8.646;2023-06-22T12:01:06;35.20;71.10
54846;DHT22;53889;50.084;8.646;2023-06-22T12:03:33;35.40;71.00
54846;DHT22;53889;50.084;8.646;2023-06-22T12:06:00;36.10;70.00
54846;DHT22;53889;50.084;8.646;2023-06-22T12:08:26;35.70;70.10
54846;DHT22;53889;50.084;8.646;2023-06-22T12:10:53;36.00;69.00
54846;DHT22;53889;50.084;8.646;2023-06-22T12:13:20;35.80;69.50
54846;DHT22;53889;50.084;8.646;2023-06-22T12:15:47;36.30;68.70
54846;DHT22;53889;50.084;8.646;2023-06-22T12:18:14;35.80;69.30
54846;DHT22;53889;50.084;8.646;2023-06-22T12:20:41;36.20;69.40
54846;DHT22;53889;50.084;8.646;2023-06-22T12:23:08;36.50;68.20
54846;DHT22;53889;50.084;8.646;2023-06-22T12:25:34;36.50;67.50
54846;DHT22;53889;50.084;8.646;2023-06-22T12:28:01;36.30;69.10
54846;DHT22;53889;50.084;8.646;2023-06-22T12:30:29;36.10;68.60
54846;DHT22;53889;50.084;8.646;2023-06-22T12:32:56;36.90;68.10
54846;DHT22;53889;50.084;8.646;2023-06-22T12:35:24;37.20;67.10
54846;DHT22;53889;50.084;8.646;2023-06-22T12:37:51;36.30;68.30
54846;DHT22;53889;50.084;8.646;2023-06-22T12:40:18;36.90;67.80
54846;DHT22;53889;50.084;8.646;2023-06-22T12:42:45;36.80;67.60
54846;DHT22;53889;50.084;8.646;2023-06-22T12:45:12;36.60;67.20
54846;DHT22;53889;50.084;8.646;2023-06-22T12:47:38;35.90;68.30
54846;DHT22;53889;50.084;8.646;2023-06-22T12:50:06;35.30;69.40
54846;DHT22;53889;50.084;8.646;2023-06-22T12:52:36;34.70;70.90
54846;DHT22;53889;50.084;8.646;2023-06-22T12:55:05;34.50;71.60
54846;DHT22;53889;50.084;8.646;2023-06-22T12:57:31;34.50;71.60
54846;DHT22;53889;50.084;8.646;2023-06-22T12:59:58;34.60;71.50
54846;DHT22;53889;50.084;8.646;2023-06-22T13:02:26;34.30;71.80
54846;DHT22;53889;50.084;8.646;2023-06-22T13:04:53;33.90;72.80
54846;DHT22;53889;50.084;8.646;2023-06-22T13:07:19;33.70;73.70
54846;DHT22;53889;50.084;8.646;2023-06-22T13:09:47;33.50;74.00
54846;DHT22;53889;50.084;8.646;2023-06-22T13:12:16;33.10;75.20
54846;DHT22;53889;50.084;8.646;2023-06-22T13:14:43;33.20;75.40
54846;DHT22;53889;50.084;8.646;2023-06-22T13:17:11;33.30;75.60
54846;DHT22;53889;50.084;8.646;2023-06-22T13:19:39;33.50;75.10
54846;DHT22;53889;50.084;8.646;2023-06-22T13:22:26;33.20;74.20
54846;DHT22;53889;50.084;8.646;2023-06-22T13:24:55;33.30;75.10
54846;DHT22;53889;50.084;8.646;2023-06-22T13:27:22;33.80;74.70
54846;DHT22;53889;50.084;8.646;2023-06-22T13:29:48;33.80;74.20
54846;DHT22;53889;50.084;8.646;2023-06-22T13:32:15;33.50;74.30
54846;DHT22;53889;50.084;8.646;2023-06-22T13:34:43;33.70;74.40
54846;DHT22;53889;50.084;8.646;2023-06-22T13:37:09;34.00;74.20
54846;DHT22;53889;50.084;8.646;2023-06-22T13:39:36;34.00;74.40
54846;DHT22;53889;50.084;8.646;2023-06-22T13:42:05;33.40;73.50
54846;DHT22;53889;50.084;8.646;2023-06-22T13:44:32;33.50;74.30
54846;DHT22;53889;50.084;8.646;2023-06-22T13:46:58;33.60;74.70
54846;DHT22;53889;50.084;8.646;2023-06-22T13:49:25;32.90;75.80
54846;DHT22;53889;50.084;8.646;2023-06-22T13:51:52;32.80;76.70
54846;DHT22;53889;50.084;8.646;2023-06-22T13:54:18;32.80;76.80
54846;DHT22;53889;50.084;8.646;2023-06-22T13:56:45;32.80;76.90
54846;DHT22;53889;50.084;8.646;2023-06-22T13:59:13;33.00;77.50
54846;DHT22;53889;50.084;8.646;2023-06-22T14:01:40;32.90;77.00
54846;DHT22;53889;50.084;8.646;2023-06-22T14:04:07;32.80;76.80
54846;DHT22;53889;50.084;8.646;2023-06-22T14:06:33;32.70;77.40
54846;DHT22;53889;50.084;8.646;2023-06-22T14:09:00;32.70;77.40
54846;DHT22;53889;50.084;8.646;2023-06-22T14:11:28;32.70;76.50
54846;DHT22;53889;50.084;8.646;2023-06-22T14:13:54;32.80;76.60
54846;DHT22;53889;50.084;8.646;2023-06-22T14:16:22;32.80;76.00
54846;DHT22;53889;50.084;8.646;2023-06-22T14:18:49;32.80;75.40
54846;DHT22;53889;50.084;8.646;2023-06-22T14:21:16;32.90;74.90
54846;DHT22;53889;50.084;8.646;2023-06-22T14:23:42;32.90;74.60
54846;DHT22;53889;50.084;8.646;2023-06-22T14:26:14;33.10;70.80
54846;DHT22;53889;50.084;8.646;2023-06-22T14:28:42;33.20;69.40
54846;DHT22;53889;50.084;8.646;2023-06-22T14:31:12;33.20;67.20
54846;DHT22;53889;50.084;8.646;2023-06-22T14:33:40;33.20;67.80
54846;DHT22;53889;50.084;8.646;2023-06-22T14:36:07;33.30;67.40
54846;DHT22;53889;50.084;8.646;2023-06-22T14:38:34;33.10;67.30
54846;DHT22;53889;50.084;8.646;2023-06-22T14:41:00;33.00;67.30
54846;DHT22;53889;50.084;8.646;2023-06-22T14:43:27;33.00;67.70
54846;DHT22;53889;50.084;8.646;2023-06-22T14:45:53;33.00;68.30
54846;DHT22;53889;50.084;8.646;2023-06-22T14:48:20;33.00;68.40
54846;DHT22;53889;50.084;8.646;2023-06-22T14:50:48;33.10;69.00
54846;DHT22;53889;50.084;8.646;2023-06-22T14:53:15;33.30;69.30
54846;DHT22;53889;50.084;8.646;2023-06-22T14:55:42;33.30;69.20
54846;DHT22;53889;50.084;8.646;2023-06-22T14:58:09;33.30;68.10
54846;DHT22;53889;50.084;8.646;2023-06-22T15:00:36;33.20;68.30
54846;DHT22;53889;50.084;8.646;2023-06-22T15:03:04;32.30;67.90
54846;DHT22;53889;50.084;8.646;2023-06-22T15:05:33;33.40;68.80
54846;DHT22;53889;50.084;8.646;2023-06-22T15:08:01;33.30;67.80
54846;DHT22;53889;50.084;8.646;2023-06-22T15:10:27;33.30;67.80
54846;DHT22;53889;50.084;8.646;2023-06-22T15:12:54;33.20;67.60
54846;DHT22;53889;50.084;8.646;2023-06-22T15:15:21;33.20;67.70
54846;DHT22;53889;50.084;8.646;2023-06-22T15:17:47;33.00;67.70
54846;DHT22;53889;50.084;8.646;2023-06-22T15:20:14;32.90;68.10
54846;DHT22;53889;50.084;8.646;2023-06-22T15:22:41;32.90;68.40
54846;DHT22;53889;50.084;8.646;2023-06-22T15:25:09;32.80;68.60
54846;DHT22;53889;50.084;8.646;2023-06-22T15:27:36;32.70;68.70
54846;DHT22;53889;50.084;8.646;2023-06-22T15:30:04;32.70;69.10
54846;DHT22;53889;50.084;8.646;2023-06-22T15:32:31;32.60;68.80